PTSA/KSA METAR and TAF weather

Enter ICAO airport designator
Station Type Date Time Source
PTSA METAR 2021/05/10 00:50 UTC NOAA

PTSA 100050Z 18005KT 4SM -SHRA BKN012TCU BKN110 OVC270 28/25 A2971 RMK TCU ALQDS


Station Type Date Time Source
PTSA Decoded METAR 2021/05/10 00:50 UTC NOAA

Kosrae Island, Kosrae Airport, Micronesia, Federated States of (PTSA) 05-21N 162-57E
May 09, 2021 - 08:50 PM EDT / 2021.05.10 0050 UTC
Wind: from the S (180 degrees) at 6 MPH (5 KT):0
Visibility: 4 mile(s):0
Sky conditions: overcast
Weather: light rain showers; Towering cumulus clouds observed
Temperature: 82 F (28 C)
Dew Point: 77 F (25 C)
Relative Humidity: 83%
Pressure (altimeter): 29.71 in. Hg (1006 hPa)
ob: PTSA 100050Z 18005KT 4SM -SHRA BKN012TCU BKN110 OVC270 28/25 A2971 RMK TCU ALQDS
cycle: 1

Station Type Date Time Source
PTSA TAF 2021/05/09 00:48 UTC NOAA

TAF PTSA 092337Z 1000/1024 11007KT P6SM VCSH SCT016 OVC130
TEMPO 1000/1004 4SM -RA BKN015

Example: see airport list